Time;durP1;ratioP1;P1;durP2;ratioP2;P2;SDS_P1;SDS_P2;PMS_P1;PMS_P2;Temp;Humidity;BMP_temperature;BMP_pressure;BME280_temperature;BME280_humidity;BME280_pressure;Samples;Min_cycle;Max_cycle;Signal;HPM_P1;HPM_P2
2023/01/31 00:01:38;;;;;;;9.13;1.80;;;4.50;83.50;;;;;;5081907;28;20059;-61
2023/01/31 00:04:12;;;;;;;8.93;1.80;;;4.50;83.50;;;;;;5084190;28;20047;-61
2023/01/31 00:06:49;;;;;;;12.73;2.10;;;4.50;83.50;;;;;;5087326;28;20093;-62
2023/01/31 00:09:18;;;;;;;8.55;1.85;;;4.50;83.60;;;;;;5086846;28;20109;-61
2023/01/31 00:11:44;;;;;;;7.40;1.83;;;4.50;83.50;;;;;;5078470;28;20055;-72
2023/01/31 00:14:19;;;;;;;10.02;2.03;;;4.50;83.60;;;;;;5076622;28;20047;-72
2023/01/31 00:16:47;;;;;;;12.68;2.72;;;4.50;83.60;;;;;;5067188;28;20048;-68
2023/01/31 00:19:13;;;;;;;6.85;1.63;;;4.50;83.60;;;;;;5073752;28;20056;-68
2023/01/31 00:21:43;;;;;;;8.35;1.95;;;4.50;83.50;;;;;;5082666;28;20411;-69
2023/01/31 00:24:12;;;;;;;10.88;2.05;;;4.50;83.50;;;;;;5081364;28;20521;-68
2023/01/31 00:26:41;;;;;;;12.05;2.90;;;4.50;83.60;;;;;;5085593;28;20048;-72
2023/01/31 00:29:09;;;;;;;9.30;1.98;;;4.50;83.50;;;;;;5083589;28;20047;-71
2023/01/31 00:31:37;;;;;;;6.78;1.95;;;4.40;83.50;;;;;;5084904;28;20084;-60
2023/01/31 00:34:03;;;;;;;5.97;1.95;;;4.40;83.60;;;;;;5087245;28;20060;-60
2023/01/31 00:36:32;;;;;;;8.15;2.03;;;4.40;83.60;;;;;;5085867;28;20283;-61
2023/01/31 00:39:01;;;;;;;7.18;1.63;;;4.50;83.60;;;;;;5085080;28;20044;-61
2023/01/31 00:41:30;;;;;;;9.82;2.17;;;4.40;83.60;;;;;;5085332;28;20648;-65
2023/01/31 00:43:58;;;;;;;8.63;1.98;;;4.40;83.50;;;;;;5087303;28;20047;-66
2023/01/31 00:46:25;;;;;;;4.80;1.73;;;4.40;83.50;;;;;;5084468;28;20055;-65
2023/01/31 00:48:54;;;;;;;11.05;2.50;;;4.40;83.60;;;;;;5086663;28;20048;-65
2023/01/31 00:51:21;;;;;;;7.60;1.80;;;4.40;83.60;;;;;;5082458;28;20052;-68
2023/01/31 00:53:50;;;;;;;10.02;2.35;;;4.40;83.60;;;;;;5063458;28;20051;-66
2023/01/31 00:56:23;;;;;;;7.00;1.80;;;4.40;83.60;;;;;;5061417;28;20047;-72
2023/01/31 00:58:50;;;;;;;6.88;1.88;;;4.40;83.60;;;;;;5066069;28;20140;-73
2023/01/31 01:01:21;;;;;;;7.80;1.70;;;4.40;83.60;;;;;;5058442;28;20052;-59
2023/01/31 01:03:50;;;;;;;7.45;1.83;;;4.40;83.60;;;;;;5062168;28;21993;-60
2023/01/31 01:06:18;;;;;;;11.68;1.80;;;4.40;83.70;;;;;;5066867;28;20392;-62
2023/01/31 01:08:45;;;;;;;5.15;1.60;;;4.40;83.60;;;;;;5066060;28;20052;-62
2023/01/31 01:11:17;;;;;;;9.27;1.77;;;4.40;83.70;;;;;;5066819;28;20044;-64
2023/01/31 01:13:44;;;;;;;8.77;1.75;;;4.40;83.70;;;;;;5066319;28;20045;-63
2023/01/31 01:16:15;;;;;;;11.38;1.77;;;4.40;83.70;;;;;;5078054;28;20062;-60
2023/01/31 01:18:46;;;;;;;8.20;1.60;;;4.40;83.60;;;;;;5086588;28;20055;-60
2023/01/31 01:21:16;;;;;;;6.07;1.55;;;4.40;83.60;;;;;;5084997;28;20534;-65
2023/01/31 01:23:43;;;;;;;5.87;1.50;;;4.40;83.60;;;;;;5086189;28;20052;-64
2023/01/31 01:26:15;;;;;;;7.30;1.45;;;4.40;83.60;;;;;;5085066;28;20036;-68
2023/01/31 01:28:42;;;;;;;5.40;1.35;;;4.40;83.70;;;;;;5086764;28;20040;-68
2023/01/31 01:31:10;;;;;;;6.22;1.60;;;4.40;83.70;;;;;;5082147;28;20044;-68
2023/01/31 01:33:40;;;;;;;8.23;1.98;;;4.40;83.70;;;;;;5084675;28;20089;-68
2023/01/31 01:36:12;;;;;;;7.10;1.83;;;4.40;83.70;;;;;;5082403;28;20040;-65
2023/01/31 01:38:40;;;;;;;9.00;1.73;;;4.30;83.70;;;;;;5083071;28;20058;-65
2023/01/31 01:41:08;;;;;;;6.65;1.52;;;4.30;83.70;;;;;;5082544;28;20040;-65
2023/01/31 01:43:42;;;;;;;7.75;1.52;;;4.40;83.80;;;;;;5083593;28;20131;-65
2023/01/31 01:46:15;;;;;;;6.65;1.27;;;4.30;83.90;;;;;;5084959;28;20059;-65
2023/01/31 01:48:44;;;;;;;11.02;1.85;;;4.30;83.80;;;;;;5084953;28;20055;-65
2023/01/31 01:51:14;;;;;;;7.95;2.00;;;4.30;83.80;;;;;;5082803;28;20041;-59
2023/01/31 01:53:44;;;;;;;3.50;1.23;;;4.30;83.90;;;;;;5082485;28;20055;-61
2023/01/31 01:56:16;;;;;;;5.93;1.55;;;4.30;83.90;;;;;;5082996;28;20044;-64
2023/01/31 01:58:48;;;;;;;6.03;1.50;;;4.30;83.90;;;;;;5090928;28;20052;-64
2023/01/31 02:01:15;;;;;;;6.40;1.58;;;4.30;83.90;;;;;;5087961;28;20595;-69
2023/01/31 02:03:49;;;;;;;7.15;1.38;;;4.30;84.00;;;;;;5072030;28;20097;-69
2023/01/31 02:06:17;;;;;;;11.20;2.13;;;4.30;84.10;;;;;;5089241;28;20054;-60
2023/01/31 02:08:45;;;;;;;8.80;1.77;;;4.20;84.20;;;;;;5069923;28;20044;-60
2023/01/31 02:11:18;;;;;;;6.13;1.50;;;4.20;84.30;;;;;;5064184;28;20063;-65
2023/01/31 02:13:47;;;;;;;6.05;1.45;;;4.20;84.30;;;;;;5084447;28;20174;-64
2023/01/31 02:16:16;;;;;;;5.90;1.80;;;4.20;84.30;;;;;;5090307;28;20048;-72
2023/01/31 02:18:44;;;;;;;8.15;1.30;;;4.20;84.20;;;;;;5083787;28;20188;-72
2023/01/31 02:21:55;;;;;;;7.38;1.48;;;4.30;84.20;;;;;;5090254;28;20052;-64
2023/01/31 02:25:00;;;;;;;8.68;1.75;;;4.30;84.20;;;;;;5072156;28;20052;-65
2023/01/31 02:28:04;;;;;;;6.85;1.80;;;4.20;84.20;;;;;;5087666;28;20105;-65
2023/01/31 02:31:09;;;;;;;6.70;1.45;;;4.30;84.30;;;;;;5084002;28;20449;-59
2023/01/31 02:33:44;;;;;;;9.10;2.33;;;4.30;84.20;;;;;;5087795;28;20105;-59
2023/01/31 02:36:21;;;;;;;8.82;2.20;;;4.30;84.30;;;;;;5070477;28;20051;-62
2023/01/31 02:38:57;;;;;;;11.32;2.30;;;4.30;84.40;;;;;;5072498;28;20052;-62
2023/01/31 02:41:32;;;;;;;6.65;2.00;;;4.30;84.40;;;;;;5064615;28;20139;-71
2023/01/31 02:46:58;;;;;;;6.70;1.58;;;4.20;84.50;;;;;;5085916;28;20129;-68
2023/01/31 02:49:34;;;;;;;6.35;1.75;;;4.30;84.40;;;;;;5087418;28;20063;-69
2023/01/31 02:52:16;;;;;;;7.15;1.55;;;4.20;84.70;;;;;;5064524;28;20055;-71
2023/01/31 02:57:38;;;;;;;7.70;1.48;;;4.20;84.70;;;;;;5071069;28;20056;-65
2023/01/31 03:00:08;;;;;;;6.07;2.57;;;4.20;84.80;;;;;;5068266;28;20055;-64
2023/01/31 03:02:35;;;;;;;9.18;1.83;;;4.20;84.70;;;;;;5085894;28;20545;-61
2023/01/31 03:05:05;;;;;;;9.15;1.75;;;4.20;84.80;;;;;;5070829;28;20048;-60
2023/01/31 03:07:36;;;;;;;9.07;2.15;;;4.20;84.80;;;;;;5070231;28;20113;-64
2023/01/31 03:10:16;;;;;;;7.07;1.70;;;4.20;84.90;;;;;;5070714;28;20056;-63
2023/01/31 03:12:53;;;;;;;7.70;1.67;;;4.20;84.80;;;;;;5070487;28;20059;-63
2023/01/31 03:18:34;;;;;;;8.95;1.90;;;4.20;84.90;;;;;;5064546;28;20161;-61
2023/01/31 03:21:10;;;;;;;6.38;1.67;;;4.20;84.80;;;;;;5087158;28;20778;-63
2023/01/31 03:23:39;;;;;;;8.65;1.90;;;4.20;84.70;;;;;;5088253;28;20159;-64
2023/01/31 03:26:07;;;;;;;9.95;1.63;;;4.20;84.80;;;;;;5062682;28;20144;-60
2023/01/31 03:28:38;;;;;;;4.90;1.92;;;4.20;84.90;;;;;;5089183;28;20044;-59
2023/01/31 03:31:10;;;;;;;6.47;1.73;;;4.20;84.80;;;;;;5065973;28;20048;-61
2023/01/31 03:33:42;;;;;;;5.20;1.27;;;4.20;84.90;;;;;;5071510;28;20047;-61
2023/01/31 03:36:19;;;;;;;6.50;1.67;;;4.20;84.80;;;;;;5059875;28;20048;-64
2023/01/31 03:38:58;;;;;;;5.75;1.42;;;4.20;84.90;;;;;;5064694;28;20059;-65
2023/01/31 03:41:31;;;;;;;9.13;2.05;;;4.20;84.80;;;;;;5068782;28;20160;-64
2023/01/31 03:44:03;;;;;;;9.48;1.65;;;4.20;84.90;;;;;;5071188;28;20075;-63
2023/01/31 03:46:37;;;;;;;6.13;1.63;;;4.20;85.10;;;;;;5070535;28;20075;-65
2023/01/31 03:49:08;;;;;;;7.90;1.85;;;4.20;85.10;;;;;;5065678;28;20052;-63
2023/01/31 03:51:41;;;;;;;9.43;1.88;;;4.20;85.10;;;;;;5081478;28;20059;-67
2023/01/31 03:54:11;;;;;;;5.22;1.88;;;4.20;85.10;;;;;;5065134;28;20044;-68
2023/01/31 03:56:42;;;;;;;7.75;1.48;;;4.20;85.00;;;;;;5066226;28;20032;-59
2023/01/31 03:59:15;;;;;;;8.10;1.42;;;4.20;84.90;;;;;;5066946;28;20134;-60
2023/01/31 04:01:47;;;;;;;3.83;1.30;;;4.20;84.90;;;;;;5061785;28;20058;-61
2023/01/31 04:04:19;;;;;;;8.55;1.85;;;4.20;84.90;;;;;;5060649;28;20040;-61
2023/01/31 04:06:47;;;;;;;5.70;1.35;;;4.20;85.00;;;;;;5069233;28;20075;-68
2023/01/31 04:09:14;;;;;;;11.57;1.75;;;4.20;84.90;;;;;;5068764;28;20067;-68
2023/01/31 04:11:42;;;;;;;6.55;1.40;;;4.20;84.90;;;;;;5084256;28;20040;-68
2023/01/31 04:14:10;;;;;;;5.57;1.30;;;4.20;85.00;;;;;;5082414;28;20536;-69
2023/01/31 04:16:37;;;;;;;7.50;1.92;;;4.20;85.00;;;;;;5086705;28;20048;-60
2023/01/31 04:19:04;;;;;;;10.23;1.52;;;4.20;85.00;;;;;;5083377;28;20868;-62
2023/01/31 04:21:31;;;;;;;5.97;1.65;;;4.10;85.10;;;;;;5086453;28;20044;-71
2023/01/31 04:23:59;;;;;;;7.80;1.60;;;4.20;85.00;;;;;;5079240;28;20047;-72
2023/01/31 04:26:30;;;;;;;6.25;1.60;;;4.10;85.10;;;;;;5078709;28;20132;-60
2023/01/31 04:28:56;;;;;;;6.13;1.52;;;4.20;85.00;;;;;;5085550;28;20063;-61
2023/01/31 04:31:23;;;;;;;7.22;1.60;;;4.20;85.20;;;;;;5076623;28;20063;-72
2023/01/31 04:33:50;;;;;;;6.72;1.60;;;4.20;85.30;;;;;;5087572;28;20449;-72
2023/01/31 04:36:17;;;;;;;5.65;1.42;;;4.20;85.10;;;;;;5087737;28;20051;-63
2023/01/31 04:38:44;;;;;;;7.93;1.83;;;4.20;85.10;;;;;;5088638;28;20059;-63
2023/01/31 04:41:12;;;;;;;6.30;1.50;;;4.20;85.20;;;;;;5088797;28;20384;-61
2023/01/31 04:43:39;;;;;;;11.70;2.28;;;4.20;85.10;;;;;;5084447;28;20048;-61
2023/01/31 04:46:06;;;;;;;6.13;1.65;;;4.20;85.30;;;;;;5076826;28;20051;-64
2023/01/31 04:48:33;;;;;;;9.93;1.95;;;4.10;85.20;;;;;;5087929;28;20044;-64
2023/01/31 04:51:00;;;;;;;9.93;2.38;;;4.20;85.20;;;;;;5083012;28;20040;-60
2023/01/31 04:53:27;;;;;;;9.70;2.05;;;4.20;85.20;;;;;;5087812;28;20040;-59
2023/01/31 04:55:55;;;;;;;8.88;1.75;;;4.20;85.20;;;;;;5082702;28;20075;-61
2023/01/31 04:58:23;;;;;;;9.02;2.00;;;4.10;85.20;;;;;;5078695;28;20064;-61
2023/01/31 05:00:51;;;;;;;6.50;1.60;;;4.20;85.20;;;;;;5076087;28;20036;-63
2023/01/31 05:03:18;;;;;;;8.57;2.20;;;4.10;85.10;;;;;;5086133;28;20093;-63
2023/01/31 05:05:48;;;;;;;7.22;1.98;;;4.10;85.10;;;;;;5081273;28;20052;-60
2023/01/31 05:08:15;;;;;;;8.25;2.08;;;4.10;85.10;;;;;;5086716;28;20072;-61
2023/01/31 05:10:42;;;;;;;10.35;2.00;;;4.10;85.10;;;;;;5078049;28;20837;-61
2023/01/31 05:13:09;;;;;;;9.95;1.90;;;4.10;85.10;;;;;;5081356;28;20044;-62
2023/01/31 05:15:38;;;;;;;10.25;1.95;;;4.10;85.10;;;;;;5077093;28;20525;-69
2023/01/31 05:18:05;;;;;;;7.88;1.58;;;4.10;85.00;;;;;;5085830;28;20064;-69
2023/01/31 05:20:35;;;;;;;8.43;1.90;;;4.00;85.00;;;;;;5086205;28;20618;-63
2023/01/31 05:23:02;;;;;;;6.97;1.90;;;4.00;85.00;;;;;;5087072;28;20048;-63
2023/01/31 05:25:29;;;;;;;9.32;2.00;;;4.00;85.00;;;;;;5083565;28;20502;-61
2023/01/31 05:27:57;;;;;;;7.95;1.90;;;3.90;85.00;;;;;;5084479;28;20044;-61
2023/01/31 05:30:24;;;;;;;6.93;1.73;;;4.00;85.00;;;;;;5072688;28;20052;-60
2023/01/31 05:32:52;;;;;;;9.50;1.65;;;4.00;85.00;;;;;;5085633;28;20040;-60
2023/01/31 05:35:19;;;;;;;8.27;1.77;;;3.90;84.90;;;;;;5087702;28;20048;-59
2023/01/31 05:37:46;;;;;;;8.73;1.90;;;3.90;84.90;;;;;;5091085;28;20051;-60
2023/01/31 05:40:15;;;;;;;9.73;1.80;;;4.00;84.90;;;;;;5086822;28;20117;-60
2023/01/31 05:42:43;;;;;;;11.32;2.08;;;4.00;84.80;;;;;;5087482;28;20084;-60
2023/01/31 05:45:11;;;;;;;7.75;1.63;;;3.90;84.90;;;;;;5075998;28;20059;-60
2023/01/31 05:47:38;;;;;;;9.60;1.83;;;3.90;84.80;;;;;;5088113;28;20498;-61
2023/01/31 05:50:07;;;;;;;8.13;1.63;;;3.90;84.70;;;;;;5087670;28;20051;-62
2023/01/31 05:52:34;;;;;;;9.82;2.35;;;3.80;84.60;;;;;;5089895;28;20056;-61
2023/01/31 05:55:01;;;;;;;8.60;1.83;;;3.80;84.60;;;;;;5080450;28;20043;-63
2023/01/31 05:57:28;;;;;;;8.43;1.70;;;3.70;84.30;;;;;;5090244;28;20048;-61
2023/01/31 05:59:55;;;;;;;8.90;2.05;;;3.70;84.50;;;;;;5089972;28;20129;-59
2023/01/31 06:02:21;;;;;;;7.85;1.70;;;3.70;84.40;;;;;;5088592;28;20044;-68
2023/01/31 06:04:49;;;;;;;9.10;2.13;;;3.70;84.30;;;;;;5089891;28;20064;-68
2023/01/31 06:07:17;;;;;;;9.45;2.50;;;3.70;84.30;;;;;;5089546;28;20490;-60
2023/01/31 06:09:44;;;;;;;9.27;2.15;;;3.70;84.30;;;;;;5091030;28;20448;-60
2023/01/31 06:12:13;;;;;;;9.38;1.80;;;3.60;84.30;;;;;;5085053;28;20060;-63
2023/01/31 06:14:40;;;;;;;11.20;2.47;;;3.50;84.30;;;;;;5087778;28;20080;-63
2023/01/31 06:17:07;;;;;;;9.48;2.75;;;3.40;84.40;;;;;;5085512;28;20052;-59
2023/01/31 06:19:33;;;;;;;6.55;1.83;;;3.50;84.40;;;;;;5087367;28;20059;-59
2023/01/31 06:22:00;;;;;;;7.22;2.30;;;3.50;84.30;;;;;;5086455;28;20133;-59
2023/01/31 06:24:30;;;;;;;9.07;2.05;;;3.40;84.40;;;;;;5085063;28;20044;-59
2023/01/31 06:26:57;;;;;;;8.25;2.05;;;3.40;84.20;;;;;;5082271;28;20394;-60
2023/01/31 06:29:24;;;;;;;6.97;2.00;;;3.40;84.50;;;;;;5085841;28;20048;-61
2023/01/31 06:31:52;;;;;;;7.82;1.95;;;3.30;84.60;;;;;;5086484;28;20615;-72
2023/01/31 06:34:19;;;;;;;11.85;2.45;;;3.40;84.70;;;;;;5084772;28;20041;-73
2023/01/31 06:36:46;;;;;;;8.43;2.20;;;3.30;84.60;;;;;;5083530;28;20047;-71
2023/01/31 06:39:14;;;;;;;5.13;1.67;;;3.30;84.50;;;;;;5088084;28;20047;-72
2023/01/31 06:41:42;;;;;;;8.60;2.47;;;3.30;84.50;;;;;;5088852;28;20078;-63
2023/01/31 06:44:13;;;;;;;10.77;2.35;;;3.20;84.60;;;;;;5089025;28;20103;-64
2023/01/31 06:46:40;;;;;;;9.40;2.95;;;3.30;84.60;;;;;;5088909;28;20040;-62
2023/01/31 06:49:08;;;;;;;10.15;3.33;;;3.20;84.80;;;;;;5088861;28;20098;-65
2023/01/31 06:51:38;;;;;;;11.02;3.70;;;3.20;84.70;;;;;;5088924;28;20040;-64
2023/01/31 06:54:05;;;;;;;12.57;3.20;;;3.20;84.60;;;;;;5090500;28;20635;-64
2023/01/31 06:56:32;;;;;;;10.52;3.33;;;3.20;84.40;;;;;;5087132;28;20047;-62
2023/01/31 06:59:03;;;;;;;7.25;2.33;;;3.20;84.40;;;;;;5089909;28;20040;-61
2023/01/31 07:01:30;;;;;;;11.45;2.47;;;3.20;84.50;;;;;;5090512;28;20402;-65
2023/01/31 07:04:00;;;;;;;7.63;2.85;;;3.20;84.30;;;;;;5090442;28;20050;-63
2023/01/31 07:06:28;;;;;;;12.27;3.58;;;3.20;84.40;;;;;;5086465;28;20044;-68
2023/01/31 07:08:55;;;;;;;13.45;3.78;;;3.20;84.20;;;;;;5089306;28;20494;-68
2023/01/31 07:11:22;;;;;;;9.85;3.67;;;3.20;84.20;;;;;;5083519;28;20052;-60
2023/01/31 07:13:49;;;;;;;14.85;4.80;;;3.20;84.50;;;;;;5080561;28;20063;-61
2023/01/31 07:16:18;;;;;;;12.40;4.30;;;3.20;84.40;;;;;;5085228;28;20042;-68
2023/01/31 07:18:45;;;;;;;12.43;3.63;;;3.20;84.40;;;;;;5087666;28;20101;-67
2023/01/31 07:21:13;;;;;;;9.07;2.95;;;3.20;84.40;;;;;;5088456;28;20036;-62
2023/01/31 07:23:45;;;;;;;11.43;2.47;;;3.30;84.50;;;;;;5085957;28;20056;-62
2023/01/31 07:26:12;;;;;;;7.85;2.17;;;3.30;84.50;;;;;;5085478;28;20574;-65
2023/01/31 07:28:38;;;;;;;8.38;2.10;;;3.30;84.30;;;;;;5085399;28;20056;-65
2023/01/31 07:31:06;;;;;;;5.93;1.83;;;3.30;84.50;;;;;;5082677;28;20048;-61
2023/01/31 07:33:34;;;;;;;9.60;2.05;;;3.30;84.40;;;;;;5088776;28;20054;-61
2023/01/31 07:36:03;;;;;;;9.35;2.90;;;3.30;84.30;;;;;;5085540;28;20498;-61
2023/01/31 07:38:30;;;;;;;10.55;2.20;;;3.30;84.30;;;;;;5087018;28;20040;-59
2023/01/31 07:40:59;;;;;;;8.98;2.08;;;3.30;84.40;;;;;;5088996;28;20044;-58
2023/01/31 07:43:26;;;;;;;13.13;2.35;;;3.30;84.30;;;;;;5083570;28;20130;-59
2023/01/31 07:45:54;;;;;;;8.45;2.35;;;3.40;84.20;;;;;;5082467;28;20482;-72
2023/01/31 07:48:22;;;;;;;7.78;2.10;;;3.30;84.30;;;;;;5081602;28;20490;-73
2023/01/31 07:50:52;;;;;;;7.10;1.80;;;3.30;84.10;;;;;;5087099;28;20055;-61
2023/01/31 07:53:19;;;;;;;7.27;1.67;;;3.40;84.10;;;;;;5086810;28;20085;-62
2023/01/31 07:55:46;;;;;;;10.25;2.00;;;3.40;83.90;;;;;;5085862;28;20093;-72
2023/01/31 07:58:14;;;;;;;10.25;1.60;;;3.40;83.90;;;;;;5083624;28;20048;-71
2023/01/31 08:03:33;;;;;;;10.07;2.20;;;3.40;83.80;;;;;;5085650;28;20052;-68
2023/01/31 08:06:03;;;;;;;11.93;2.63;;;3.40;83.90;;;;;;5084197;28;20055;-64
2023/01/31 08:08:31;;;;;;;10.07;2.50;;;3.40;83.90;;;;;;5082538;28;20055;-64
2023/01/31 08:11:00;;;;;;;11.50;2.70;;;3.50;83.80;;;;;;5087500;28;20076;-61
2023/01/31 08:13:35;;;;;;;9.88;2.42;;;3.50;83.80;;;;;;5086929;28;20044;-60
2023/01/31 08:16:02;;;;;;;10.10;2.60;;;3.50;83.80;;;;;;5085994;28;20120;-73
2023/01/31 08:18:29;;;;;;;9.65;2.10;;;3.50;83.70;;;;;;5083280;28;20059;-72
2023/01/31 08:20:56;;;;;;;10.13;2.30;;;3.60;83.90;;;;;;5089096;28;20044;-68
2023/01/31 08:23:24;;;;;;;8.18;2.40;;;3.50;83.80;;;;;;5085728;28;20102;-68
2023/01/31 08:25:51;;;;;;;13.05;2.30;;;3.60;83.80;;;;;;5084762;28;20423;-64
2023/01/31 08:28:18;;;;;;;8.75;2.33;;;3.60;83.70;;;;;;5084996;28;20044;-64
2023/01/31 08:30:45;;;;;;;9.15;2.30;;;3.60;83.80;;;;;;5087756;28;20056;-63
2023/01/31 08:33:13;;;;;;;9.55;2.08;;;3.60;83.80;;;;;;5086502;28;20571;-64
2023/01/31 08:35:40;;;;;;;8.25;2.47;;;3.60;83.80;;;;;;5087866;28;20047;-72
2023/01/31 08:38:06;;;;;;;13.73;2.22;;;3.60;83.80;;;;;;5087081;28;20058;-72
2023/01/31 08:40:35;;;;;;;6.50;2.05;;;3.60;83.70;;;;;;5086680;28;20056;-62
2023/01/31 08:43:01;;;;;;;8.48;2.65;;;3.60;83.70;;;;;;5088413;28;20490;-62
2023/01/31 08:45:29;;;;;;;13.02;2.50;;;3.60;83.70;;;;;;5084961;28;20513;-61
2023/01/31 08:47:57;;;;;;;9.77;2.47;;;3.70;83.70;;;;;;5088150;28;20040;-61
2023/01/31 08:50:26;;;;;;;5.63;2.03;;;3.70;83.70;;;;;;5085131;28;20052;-71
2023/01/31 08:52:53;;;;;;;7.32;2.40;;;3.70;83.60;;;;;;5087779;28;20044;-72
2023/01/31 08:55:21;;;;;;;9.10;2.80;;;3.70;83.60;;;;;;5082130;28;20068;-72
2023/01/31 08:57:50;;;;;;;8.73;2.97;;;3.70;83.60;;;;;;5083593;28;20047;-72
2023/01/31 09:00:19;;;;;;;10.82;2.45;;;3.70;83.60;;;;;;5083023;28;20047;-72
2023/01/31 09:02:50;;;;;;;13.25;2.85;;;3.80;83.60;;;;;;5084769;28;20055;-72
2023/01/31 09:05:17;;;;;;;10.90;2.53;;;3.80;83.60;;;;;;5084122;28;20040;-72
2023/01/31 09:07:47;;;;;;;7.57;2.53;;;3.80;83.60;;;;;;5084714;28;20044;-71
2023/01/31 09:10:13;;;;;;;8.73;2.25;;;3.90;83.50;;;;;;5084266;28;20048;-72
2023/01/31 09:12:40;;;;;;;8.63;2.78;;;4.00;83.50;;;;;;5082480;28;20068;-72
2023/01/31 09:15:10;;;;;;;9.35;2.70;;;3.90;83.40;;;;;;5087809;28;20048;-70
2023/01/31 09:17:37;;;;;;;10.48;2.85;;;4.00;83.50;;;;;;5085173;28;20055;-70
2023/01/31 09:20:06;;;;;;;10.23;3.08;;;4.00;83.50;;;;;;5087332;28;20051;-70
2023/01/31 09:22:35;;;;;;;10.68;2.40;;;4.00;83.40;;;;;;5084564;28;20449;-62
2023/01/31 09:25:02;;;;;;;7.50;2.75;;;4.00;83.40;;;;;;5087908;28;20469;-62
2023/01/31 09:27:30;;;;;;;10.57;2.58;;;4.10;83.40;;;;;;5082572;28;20044;-63
2023/01/31 09:29:57;;;;;;;10.85;2.42;;;4.20;83.30;;;;;;5079017;28;20466;-64
2023/01/31 09:32:25;;;;;;;8.55;2.88;;;4.20;83.20;;;;;;5085096;28;20044;-64
2023/01/31 09:34:52;;;;;;;10.73;2.92;;;4.20;83.20;;;;;;5082903;28;20055;-64
2023/01/31 09:37:18;;;;;;;9.20;3.75;;;4.20;83.10;;;;;;5083834;28;20036;-62
2023/01/31 09:39:45;;;;;;;9.77;3.13;;;4.30;83.00;;;;;;5083912;28;20051;-64
2023/01/31 09:42:20;;;;;;;10.07;3.75;;;4.40;82.90;;;;;;5085689;28;20044;-64
2023/01/31 09:44:58;;;;;;;13.05;4.53;;;4.50;82.80;;;;;;5081474;28;20379;-64
2023/01/31 09:47:29;;;;;;;12.50;4.50;;;4.50;82.70;;;;;;5086690;28;20056;-65
2023/01/31 09:50:00;;;;;;;8.65;3.50;;;4.50;82.50;;;;;;5082664;28;20521;-65
2023/01/31 09:52:30;;;;;;;9.25;4.38;;;4.50;82.40;;;;;;5085604;28;20047;-61
2023/01/31 09:54:57;;;;;;;14.10;4.47;;;4.60;82.30;;;;;;5086073;28;20040;-61
2023/01/31 09:57:35;;;;;;;12.00;4.85;;;4.50;82.30;;;;;;5082722;28;20048;-61
2023/01/31 10:00:13;;;;;;;13.13;4.60;;;4.50;82.40;;;;;;5081225;28;20040;-61
2023/01/31 10:03:02;;;;;;;12.02;4.57;;;4.60;82.30;;;;;;5083328;28;20090;-61
2023/01/31 10:05:37;;;;;;;9.77;4.68;;;4.60;82.30;;;;;;5084214;28;20036;-61
2023/01/31 10:08:14;;;;;;;13.00;5.35;;;4.60;82.30;;;;;;5083399;28;20570;-60
2023/01/31 10:10:46;;;;;;;10.48;4.57;;;4.60;82.40;;;;;;5087197;28;20047;-61
2023/01/31 10:13:23;;;;;;;12.75;5.00;;;4.60;82.20;;;;;;5082626;28;20117;-61
2023/01/31 10:15:53;;;;;;;11.80;5.05;;;4.60;82.10;;;;;;5085530;28;20044;-61
2023/01/31 10:18:27;;;;;;;12.75;5.50;;;4.60;82.10;;;;;;5089886;28;20040;-61
2023/01/31 10:20:57;;;;;;;13.63;5.95;;;4.50;82.00;;;;;;5086164;28;20055;-71
2023/01/31 10:23:29;;;;;;;13.48;5.47;;;4.50;82.00;;;;;;5087729;28;20123;-73
2023/01/31 10:26:00;;;;;;;13.77;5.47;;;4.50;82.10;;;;;;5091855;28;20068;-61
2023/01/31 10:28:35;;;;;;;12.98;5.13;;;4.40;82.10;;;;;;5087341;28;20052;-60
2023/01/31 10:31:10;;;;;;;12.88;5.13;;;4.40;82.20;;;;;;5083446;28;20062;-71
2023/01/31 10:33:45;;;;;;;11.10;5.10;;;4.40;82.20;;;;;;5088819;28;20083;-72
2023/01/31 10:36:18;;;;;;;8.75;4.70;;;4.40;82.10;;;;;;5085035;28;20048;-70
2023/01/31 10:38:57;;;;;;;15.45;5.57;;;4.40;82.20;;;;;;5089626;28;20068;-72
2023/01/31 10:41:34;;;;;;;14.73;5.55;;;4.40;82.20;;;;;;5087451;28;20052;-72
2023/01/31 10:44:12;;;;;;;14.23;4.53;;;4.40;82.20;;;;;;5087327;28;20459;-71
2023/01/31 10:46:39;;;;;;;10.88;4.88;;;4.40;82.30;;;;;;5089970;28;20056;-63
2023/01/31 10:49:09;;;;;;;10.50;4.50;;;4.40;82.30;;;;;;5087687;28;20051;-63
2023/01/31 10:51:52;;;;;;;11.43;5.00;;;4.40;82.40;;;;;;5089245;28;20048;-64
2023/01/31 10:54:35;;;;;;;12.57;4.57;;;4.40;82.30;;;;;;5082283;28;20406;-66
2023/01/31 10:57:03;;;;;;;8.80;4.63;;;4.30;82.30;;;;;;5090159;28;20056;-64
2023/01/31 10:59:33;;;;;;;10.43;4.72;;;4.30;82.40;;;;;;5084547;28;20048;-66
2023/01/31 11:02:01;;;;;;;12.40;5.22;;;4.30;82.40;;;;;;5085495;28;20056;-63
2023/01/31 11:04:31;;;;;;;11.25;4.55;;;4.30;82.50;;;;;;5084320;28;20040;-65
2023/01/31 11:07:01;;;;;;;15.48;5.05;;;4.30;82.40;;;;;;5084971;28;20066;-67
2023/01/31 11:09:32;;;;;;;12.00;4.70;;;4.30;82.50;;;;;;5086445;28;20040;-68
2023/01/31 11:12:01;;;;;;;15.40;5.38;;;4.30;82.50;;;;;;5082102;28;20043;-64
2023/01/31 11:14:30;;;;;;;11.35;4.55;;;4.30;82.50;;;;;;5087340;28;20048;-64
2023/01/31 11:17:00;;;;;;;9.95;4.22;;;4.30;82.60;;;;;;5085319;28;20047;-65
2023/01/31 11:19:37;;;;;;;11.88;4.45;;;4.30;82.60;;;;;;5086292;28;20651;-64
2023/01/31 11:22:05;;;;;;;10.93;4.43;;;4.20;82.70;;;;;;5083165;28;20101;-65
2023/01/31 11:24:34;;;;;;;11.60;4.65;;;4.30;82.70;;;;;;5088162;28;20040;-64
2023/01/31 11:27:05;;;;;;;14.55;4.75;;;4.30;82.80;;;;;;5088192;28;20051;-60
2023/01/31 11:29:36;;;;;;;12.57;4.88;;;4.30;82.90;;;;;;5086946;28;20067;-59
2023/01/31 11:32:06;;;;;;;11.02;4.75;;;4.30;82.90;;;;;;5083545;28;20067;-72
2023/01/31 11:34:36;;;;;;;9.20;4.40;;;4.30;82.90;;;;;;5085805;28;20048;-72
2023/01/31 11:37:06;;;;;;;10.38;4.40;;;4.30;82.90;;;;;;5084328;28;20044;-63
2023/01/31 11:39:37;;;;;;;10.48;4.40;;;4.30;82.90;;;;;;5080434;28;20044;-62
2023/01/31 11:42:12;;;;;;;14.55;5.05;;;4.30;82.90;;;;;;5084223;28;20050;-69
2023/01/31 11:44:57;;;;;;;10.65;4.55;;;4.30;82.90;;;;;;5088477;28;20082;-67
2023/01/31 11:47:32;;;;;;;12.30;4.55;;;4.30;82.90;;;;;;5085627;28;20479;-68
2023/01/31 11:50:02;;;;;;;14.38;5.50;;;4.30;83.00;;;;;;5086808;28;20409;-69
2023/01/31 11:52:31;;;;;;;11.10;4.55;;;4.30;83.00;;;;;;5087611;28;20049;-61
2023/01/31 11:55:02;;;;;;;9.20;4.00;;;4.30;83.10;;;;;;5088517;28;20494;-61
2023/01/31 11:57:31;;;;;;;;;;;4.30;83.10;;;;;;5088096;28;20062;-59
2023/01/31 12:00:00;;;;;;;13.32;5.00;;;4.30;83.20;;;;;;5080105;28;19932;-58
2023/01/31 12:02:38;;;;;;;10.10;4.35;;;4.30;83.30;;;;;;5081342;28;20054;-59
2023/01/31 12:05:12;;;;;;;12.77;4.25;;;4.30;83.30;;;;;;5087230;28;20059;-58
2023/01/31 12:07:43;;;;;;;9.90;4.30;;;4.30;83.30;;;;;;5087579;28;20093;-58
2023/01/31 12:10:27;;;;;;;11.43;4.57;;;4.30;83.30;;;;;;5082976;28;20051;-59
2023/01/31 12:13:02;;;;;;;;;;;4.30;83.40;;;;;;5089213;28;20138;-60
2023/01/31 12:15:30;;;;;;;11.20;3.97;;;4.30;83.50;;;;;;5085466;28;20042;-63
2023/01/31 12:18:00;;;;;;;10.95;4.15;;;4.40;83.40;;;;;;5084794;28;20109;-63
2023/01/31 12:20:45;;;;;;;11.90;4.00;;;4.40;83.40;;;;;;5080130;28;20059;-64
2023/01/31 12:23:25;;;;;;;12.77;5.13;;;4.40;83.50;;;;;;5085590;28;20051;-64
2023/01/31 12:26:04;;;;;;;11.75;5.07;;;4.40;83.50;;;;;;5087034;28;20047;-64
2023/01/31 12:28:45;;;;;;;11.60;4.80;;;4.40;83.50;;;;;;5083869;28;20051;-63
2023/01/31 12:31:47;;;;;;;12.10;5.15;;;4.40;83.50;;;;;;5084784;28;20490;-60
2023/01/31 12:34:28;;;;;;;12.10;4.43;;;4.40;83.40;;;;;;5084756;28;20044;-60
2023/01/31 12:37:20;;;;;;;11.40;4.60;;;4.40;83.40;;;;;;5082207;28;20387;-62
2023/01/31 12:39:59;;;;;;;10.35;4.93;;;4.40;83.40;;;;;;5084513;28;20056;-59
2023/01/31 12:42:41;;;;;;;11.98;3.90;;;4.40;83.50;;;;;;5086436;28;20123;-60
2023/01/31 12:45:14;;;;;;;;;;;4.40;83.40;;;;;;5084329;28;20072;-58
2023/01/31 12:47:58;;;;;;;9.25;4.25;;;4.40;83.50;;;;;;5082009;28;20657;-63
2023/01/31 12:50:30;;;;;;;12.25;4.35;;;4.40;83.50;;;;;;5087273;28;20050;-62
2023/01/31 12:53:20;;;;;;;10.90;4.28;;;4.50;83.50;;;;;;5084761;28;20453;-61
2023/01/31 12:55:55;;;;;;;10.65;4.32;;;4.50;83.50;;;;;;5084396;28;20048;-61
2023/01/31 12:58:38;;;;;;;9.15;3.92;;;4.50;83.50;;;;;;5085790;28;20056;-62
2023/01/31 13:01:09;;;;;;;9.60;4.05;;;4.50;83.50;;;;;;5079437;28;20041;-71
2023/01/31 13:03:48;;;;;;;10.82;3.53;;;4.50;83.60;;;;;;5084487;28;20138;-70
2023/01/31 13:06:19;;;;;;;13.00;4.90;;;4.50;83.50;;;;;;5086126;28;20051;-60
2023/01/31 13:08:54;;;;;;;10.18;4.28;;;4.60;83.50;;;;;;5082423;28;20055;-61
2023/01/31 13:11:25;;;;;;;7.65;3.78;;;4.60;83.50;;;;;;5082313;28;20839;-64
2023/01/31 13:13:55;;;;;;;14.18;3.55;;;4.60;83.60;;;;;;5079964;28;20051;-64
2023/01/31 13:16:29;;;;;;;11.27;4.68;;;4.60;83.70;;;;;;5086280;28;20056;-71
2023/01/31 13:19:00;;;;;;;9.98;4.13;;;4.50;83.70;;;;;;5086378;28;20491;-72
2023/01/31 13:21:33;;;;;;;10.55;3.90;;;4.50;83.90;;;;;;5080069;28;20052;-59
2023/01/31 13:24:06;;;;;;;13.63;3.47;;;4.60;83.90;;;;;;5078821;28;20414;-60